createdAt,value
2023-01-13T00:01:15.348Z,22.20
2023-01-13T00:03:43.545Z,21.40
2023-01-13T00:06:18.381Z,22.30
2023-01-13T00:08:48.167Z,22.60
2023-01-13T00:11:15.032Z,21.00
2023-01-13T00:13:41.958Z,22.60
2023-01-13T00:16:14.943Z,22.70
2023-01-13T00:18:42.099Z,21.70
2023-01-13T00:21:23.100Z,24.00
2023-01-13T00:23:51.456Z,22.70
2023-01-13T00:26:20.031Z,23.10
2023-01-13T00:28:46.880Z,23.80
2023-01-13T00:31:23.204Z,25.90
2023-01-13T00:33:50.699Z,23.80
2023-01-13T00:36:19.509Z,25.00
2023-01-13T00:38:47.355Z,23.30
2023-01-13T00:41:16.551Z,26.20
2023-01-13T00:43:43.300Z,25.30
2023-01-13T00:46:12.407Z,25.20
2023-01-13T00:48:39.870Z,24.00
2023-01-13T00:51:14.317Z,25.30
2023-01-13T00:53:43.275Z,25.10
2023-01-13T00:56:34.100Z,24.90
2023-01-13T00:59:05.112Z,25.50
2023-01-13T01:01:32.713Z,24.90
2023-01-13T01:03:59.930Z,24.60
2023-01-13T01:06:27.701Z,24.30
2023-01-13T01:08:55.276Z,23.80
2023-01-13T01:11:29.578Z,23.20
2023-01-13T01:13:57.745Z,24.30
2023-01-13T01:16:27.001Z,24.90
2023-01-13T01:18:54.726Z,25.30
2023-01-13T01:21:23.089Z,23.50
2023-01-13T01:23:49.935Z,23.50
2023-01-13T01:26:22.725Z,22.60
2023-01-13T01:28:49.713Z,24.20
2023-01-13T01:31:21.629Z,23.10
2023-01-13T01:33:49.084Z,24.50
2023-01-13T01:36:17.565Z,23.80
2023-01-13T01:38:44.547Z,24.10
2023-01-13T01:41:19.852Z,25.30
2023-01-13T01:44:01.951Z,24.70
2023-01-13T01:46:43.335Z,24.90
2023-01-13T01:49:19.397Z,27.20
2023-01-13T01:52:19.862Z,28.00
2023-01-13T01:54:50.775Z,25.90
2023-01-13T01:57:19.453Z,24.30
2023-01-13T01:59:46.322Z,24.60
2023-01-13T02:02:13.419Z,26.00
2023-01-13T02:04:50.068Z,25.70
2023-01-13T02:07:19.215Z,25.90
2023-01-13T02:09:46.877Z,24.70
2023-01-13T02:12:29.078Z,24.70
2023-01-13T02:14:58.485Z,24.00
2023-01-13T02:17:47.444Z,23.30
2023-01-13T02:20:37.126Z,23.70
2023-01-13T02:23:57.232Z,24.10
2023-01-13T02:26:45.975Z,22.00
2023-01-13T02:29:59.823Z,22.90
2023-01-13T02:32:33.706Z,27.40
2023-01-13T02:35:09.688Z,24.20
2023-01-13T02:37:38.370Z,23.20
2023-01-13T02:40:18.650Z,26.10
2023-01-13T02:43:08.314Z,24.20
2023-01-13T02:45:41.652Z,20.90
2023-01-13T02:48:08.447Z,23.30
2023-01-13T02:50:50.442Z,23.30
2023-01-13T02:53:25.581Z,24.40
2023-01-13T03:03:32.932Z,23.70
2023-01-13T03:06:19.332Z,23.00
2023-01-13T03:08:51.274Z,21.90
2023-01-13T03:11:19.364Z,23.60
2023-01-13T03:13:58.696Z,22.50
2023-01-13T03:16:44.259Z,21.00
2023-01-13T03:19:11.220Z,25.60
2023-01-13T03:21:53.014Z,25.90
2023-01-13T03:24:43.041Z,22.80
2023-01-13T03:27:15.989Z,20.20
2023-01-13T03:30:07.543Z,21.50
2023-01-13T03:32:39.700Z,21.40
2023-01-13T03:35:13.921Z,22.20
2023-01-13T03:37:49.931Z,20.20
2023-01-13T03:40:26.411Z,21.10
2023-01-13T03:43:19.690Z,23.20
2023-01-13T03:45:47.767Z,21.80
2023-01-13T03:48:16.536Z,22.10
2023-01-13T03:50:49.329Z,23.40
2023-01-13T03:53:28.986Z,22.90
2023-01-13T03:56:02.188Z,21.50
2023-01-13T03:58:31.314Z,24.30
2023-01-13T04:01:35.790Z,25.10
2023-01-13T04:04:07.670Z,23.50
2023-01-13T04:07:15.031Z,23.20
2023-01-13T04:10:05.387Z,23.10
2023-01-13T04:12:52.890Z,23.50
2023-01-13T04:15:25.257Z,21.00
2023-01-13T04:17:53.206Z,22.90
2023-01-13T04:20:20.461Z,21.90
2023-01-13T04:22:47.304Z,20.80
2023-01-13T04:25:14.289Z,23.10
2023-01-13T04:27:41.092Z,21.20
2023-01-13T04:30:09.064Z,20.90
2023-01-13T04:32:35.843Z,21.00
2023-01-13T04:35:03.672Z,22.30
2023-01-13T04:37:30.364Z,21.10
2023-01-13T04:39:58.526Z,20.60
2023-01-13T04:42:25.296Z,22.70
2023-01-13T04:44:52.181Z,22.70
2023-01-13T04:47:19.003Z,20.40
2023-01-13T04:49:45.789Z,22.80
2023-01-13T04:52:12.614Z,21.90
2023-01-13T04:54:39.549Z,21.50
2023-01-13T04:57:06.385Z,21.70
2023-01-13T04:59:34.593Z,21.40
2023-01-13T05:02:01.751Z,20.40
2023-01-13T05:04:28.780Z,21.00
2023-01-13T05:06:55.737Z,23.70
2023-01-13T05:09:22.458Z,20.80
2023-01-13T05:12:08.242Z,20.00
2023-01-13T05:14:54.025Z,19.40
2023-01-13T05:17:22.828Z,22.70
2023-01-13T05:19:50.169Z,21.20
2023-01-13T05:22:35.856Z,21.10
2023-01-13T05:25:21.684Z,20.60
2023-01-13T05:27:53.501Z,20.50
2023-01-13T05:30:25.080Z,19.30
2023-01-13T05:32:52.002Z,20.50
2023-01-13T05:35:18.955Z,19.60
2023-01-13T05:37:46.197Z,20.40
2023-01-13T05:40:32.835Z,19.50
2023-01-13T05:43:24.585Z,16.90
2023-01-13T05:45:59.703Z,17.10
2023-01-13T05:48:37.483Z,20.70
2023-01-13T05:51:05.358Z,26.50
2023-01-13T05:53:32.399Z,27.10
2023-01-13T05:55:59.261Z,25.10
2023-01-13T05:58:27.306Z,20.60
2023-01-13T06:00:58.606Z,18.00
2023-01-13T06:03:25.417Z,14.80
2023-01-13T08:13:22.164Z,18.50
2023-01-13T08:15:51.950Z,18.00
2023-01-13T08:18:21.407Z,17.10
2023-01-13T08:20:48.829Z,17.60
2023-01-13T08:23:16.361Z,15.90
2023-01-13T08:25:43.122Z,17.30
2023-01-13T08:28:10.401Z,16.70
2023-01-13T08:30:39.697Z,16.70
2023-01-13T08:33:07.551Z,18.40
2023-01-13T08:35:40.551Z,21.30
2023-01-13T08:38:07.577Z,18.20
2023-01-13T08:40:34.284Z,16.80
2023-01-13T08:43:00.877Z,16.70
2023-01-13T08:45:27.502Z,17.20
2023-01-13T08:47:54.200Z,18.50
2023-01-13T10:12:43.878Z,23.70
2023-01-13T10:26:01.343Z,26.60
2023-01-13T10:28:28.399Z,23.40
2023-01-13T10:30:55.218Z,24.60
2023-01-13T10:33:28.656Z,23.50
2023-01-13T10:35:56.772Z,22.20
2023-01-13T10:38:36.374Z,21.80
2023-01-13T10:41:05.855Z,21.90
2023-01-13T10:43:32.812Z,22.90
2023-01-13T10:46:06.575Z,21.30
2023-01-13T10:48:36.103Z,20.60
2023-01-13T10:51:18.349Z,21.10
2023-01-13T10:53:55.529Z,18.50
2023-01-13T10:56:23.797Z,18.30
2023-01-13T10:58:50.906Z,18.30
2023-01-13T11:01:28.417Z,17.20
2023-01-13T11:03:55.418Z,17.70
2023-01-13T11:06:29.823Z,16.50
2023-01-13T11:08:58.688Z,18.30
2023-01-13T11:11:40.415Z,18.50
2023-01-13T11:14:42.380Z,17.50
2023-01-13T11:17:12.359Z,16.60
2023-01-13T11:19:42.485Z,17.20
2023-01-13T11:22:28.499Z,19.00
2023-01-13T11:24:56.656Z,18.90
2023-01-13T11:27:46.991Z,17.40
2023-01-13T11:30:29.860Z,20.80
2023-01-13T11:33:02.737Z,18.60
2023-01-13T11:35:30.432Z,19.00
2023-01-13T11:38:06.584Z,19.40
2023-01-13T11:40:38.184Z,21.30
2023-01-13T11:43:07.778Z,19.80
2023-01-13T11:45:50.963Z,17.40
2023-01-13T11:48:20.937Z,19.60
2023-01-13T11:50:53.919Z,20.30
2023-01-13T11:53:53.069Z,20.50
2023-01-13T11:56:47.997Z,18.10
2023-01-13T11:59:47.541Z,23.00
2023-01-13T14:09:29.258Z,17.20
2023-01-13T14:12:01.361Z,17.00
2023-01-13T14:14:28.908Z,16.80
2023-01-13T14:16:56.594Z,17.60
2023-01-13T14:19:34.069Z,16.20
2023-01-13T14:29:41.192Z,20.00
2023-01-13T14:32:08.007Z,20.50
2023-01-13T14:34:34.789Z,21.80
2023-01-13T14:37:03.180Z,23.40
2023-01-13T14:39:38.859Z,22.70
2023-01-13T14:42:11.933Z,21.60
2023-01-13T14:44:38.728Z,21.30
2023-01-13T14:47:24.307Z,24.10
2023-01-13T14:50:01.156Z,20.10
2023-01-13T14:52:30.349Z,17.10
2023-01-13T14:55:10.482Z,16.00
2023-01-13T14:57:39.627Z,14.80
2023-01-13T15:00:15.601Z,15.00
2023-01-13T15:02:58.995Z,16.50
2023-01-13T15:05:25.867Z,14.10
2023-01-13T15:07:53.571Z,15.00
2023-01-13T15:10:28.283Z,15.50
2023-01-13T15:12:56.642Z,16.50
2023-01-13T15:15:28.102Z,17.00
2023-01-13T15:17:54.847Z,17.30
2023-01-13T15:20:24.033Z,19.70
2023-01-13T15:22:52.095Z,19.60
2023-01-13T15:25:18.939Z,17.90
2023-01-13T15:27:50.826Z,18.80
2023-01-13T15:30:27.657Z,18.60
2023-01-13T15:32:55.272Z,19.00
2023-01-13T15:35:23.110Z,17.70
2023-01-13T15:37:49.917Z,18.70
2023-01-13T15:40:30.748Z,19.70
2023-01-13T15:43:16.654Z,21.10
2023-01-13T15:46:02.282Z,21.60
2023-01-13T15:48:30.904Z,21.70
2023-01-13T15:50:57.725Z,20.10
2023-01-13T15:53:25.527Z,19.80
2023-01-13T15:55:56.662Z,19.00
2023-01-13T15:58:28.412Z,18.20
2023-01-13T16:00:55.660Z,20.70
2023-01-13T16:03:22.807Z,23.30
2023-01-13T16:05:49.743Z,22.30
2023-01-13T16:08:17.845Z,22.00
2023-01-13T16:10:45.087Z,20.10
2023-01-13T16:13:13.150Z,23.20
2023-01-13T16:15:43.534Z,18.00
2023-01-13T16:18:16.322Z,17.20
2023-01-13T16:20:43.922Z,16.00
2023-01-13T16:23:11.421Z,14.20
2023-01-13T16:25:38.535Z,14.10
2023-01-13T16:28:06.180Z,15.70
2023-01-13T16:30:35.102Z,14.40
2023-01-13T16:33:03.403Z,14.60
2023-01-13T16:35:32.223Z,15.80
2023-01-13T16:37:59.988Z,14.10
2023-01-13T16:40:31.239Z,14.80
2023-01-13T16:42:58.362Z,14.80
2023-01-13T16:45:25.382Z,15.70
2023-01-13T16:47:52.818Z,14.30
2023-01-13T16:50:29.056Z,15.30
2023-01-13T16:52:55.916Z,17.30
2023-01-13T16:55:22.820Z,17.90
2023-01-13T16:57:49.596Z,16.30
2023-01-13T17:00:17.019Z,16.60
2023-01-13T17:02:44.110Z,16.40
2023-01-13T17:05:12.146Z,15.80
2023-01-13T17:07:40.061Z,17.00
2023-01-13T17:10:07.576Z,14.70
2023-01-13T17:12:34.402Z,13.00
2023-01-13T17:15:01.197Z,15.40
2023-01-13T17:17:28.111Z,15.90
2023-01-13T17:19:55.143Z,14.50
2023-01-13T17:22:22.027Z,12.90
2023-01-13T17:24:49.045Z,12.10
2023-01-13T17:27:17.447Z,14.00
2023-01-13T17:29:44.992Z,12.80
2023-01-13T17:32:18.127Z,12.90
2023-01-13T17:34:45.201Z,13.70
2023-01-13T17:37:15.449Z,13.10
2023-01-13T17:39:44.232Z,14.60
2023-01-13T17:42:11.225Z,14.70
2023-01-13T17:44:38.753Z,14.20
2023-01-13T17:47:05.824Z,14.30
2023-01-13T17:49:32.845Z,13.20
2023-01-13T17:51:59.687Z,14.60
2023-01-13T17:54:26.629Z,12.40
2023-01-13T17:56:53.527Z,14.30
2023-01-13T17:59:20.529Z,15.00
2023-01-13T18:01:47.334Z,13.50
2023-01-13T18:04:21.731Z,16.70
2023-01-13T18:06:48.788Z,14.60
2023-01-13T18:09:16.392Z,13.40
2023-01-13T18:11:43.578Z,12.60
2023-01-13T18:14:10.586Z,14.10
2023-01-13T18:16:37.852Z,16.10
2023-01-13T18:19:23.728Z,15.20
2023-01-13T18:22:23.072Z,13.70
2023-01-13T18:25:09.473Z,13.70
2023-01-13T18:27:38.149Z,13.70
2023-01-13T18:30:06.720Z,14.70
2023-01-13T18:32:33.876Z,14.70
2023-01-13T18:35:06.147Z,16.60
2023-01-13T18:37:36.212Z,18.20
2023-01-13T18:40:04.382Z,18.30
2023-01-13T18:42:50.315Z,16.20
2023-01-13T18:45:25.899Z,14.20
2023-01-13T18:47:54.161Z,14.20
2023-01-13T18:50:21.283Z,14.30
2023-01-13T18:52:48.265Z,13.80
2023-01-13T18:55:15.173Z,13.40
2023-01-13T18:57:41.975Z,14.10
2023-01-13T19:00:12.426Z,14.40
2023-01-13T19:02:39.341Z,14.20
2023-01-13T19:05:06.929Z,16.30
2023-01-13T19:07:35.758Z,14.90
2023-01-13T19:10:04.571Z,19.40
2023-01-13T19:12:31.591Z,19.40
2023-01-13T19:14:58.632Z,15.60
2023-01-13T19:17:26.817Z,16.40
2023-01-13T19:19:54.980Z,16.40
2023-01-13T19:22:23.705Z,20.40
2023-01-13T19:24:50.810Z,15.30
2023-01-13T19:27:18.196Z,15.30
2023-01-13T19:29:51.808Z,14.90
2023-01-13T19:32:21.032Z,15.10
2023-01-13T19:34:50.917Z,14.70
2023-01-13T19:37:18.345Z,16.20
2023-01-13T19:39:45.216Z,16.50
2023-01-13T19:42:31.498Z,18.40
2023-01-13T19:45:17.497Z,16.50
2023-01-13T19:47:45.913Z,15.40
2023-01-13T19:50:13.741Z,16.00
2023-01-13T19:52:41.878Z,16.40
2023-01-13T19:55:09.959Z,14.60
2023-01-13T19:57:37.797Z,17.10
2023-01-13T20:00:07.139Z,18.20
2023-01-13T20:02:45.045Z,23.60
2023-01-13T20:05:15.370Z,18.00
2023-01-13T20:07:42.731Z,17.20
2023-01-13T20:10:10.492Z,17.30
2023-01-13T20:12:37.440Z,17.50
2023-01-13T20:15:05.904Z,17.80
2023-01-13T20:17:32.871Z,15.20
2023-01-13T20:19:59.810Z,16.20
2023-01-13T20:22:26.569Z,14.60
2023-01-13T20:24:55.416Z,14.90
2023-01-13T20:27:23.881Z,14.50
2023-01-13T20:29:51.005Z,14.10
2023-01-13T20:32:17.769Z,13.10
2023-01-13T20:34:44.966Z,16.70
2023-01-13T20:37:11.685Z,18.50
2023-01-13T20:39:40.228Z,16.30
2023-01-13T20:42:25.723Z,18.00
2023-01-13T20:44:52.715Z,17.70
2023-01-13T20:47:19.667Z,16.00
2023-01-13T20:49:46.827Z,15.80
2023-01-13T20:52:14.190Z,15.10
2023-01-13T20:54:41.259Z,14.20
2023-01-13T20:57:10.074Z,18.50
2023-01-13T20:59:37.878Z,17.00
2023-01-13T21:02:06.255Z,19.10
2023-01-13T21:04:33.840Z,20.00
2023-01-13T21:07:00.699Z,18.00
2023-01-13T21:09:27.504Z,20.40
2023-01-13T21:12:13.215Z,16.30
2023-01-13T21:14:58.971Z,18.90
2023-01-13T21:17:44.533Z,48.00
2023-01-13T21:20:12.561Z,40.30
2023-01-13T21:22:40.874Z,30.90
2023-01-13T21:25:08.462Z,29.10
2023-01-13T21:27:35.408Z,33.30
2023-01-13T21:30:02.307Z,64.50
2023-01-13T21:32:29.106Z,70.60
2023-01-13T21:34:56.660Z,42.00
2023-01-13T21:37:23.549Z,37.80
2023-01-13T21:39:50.353Z,27.30
2023-01-13T21:42:36.486Z,25.40
2023-01-13T21:45:22.556Z,21.70
2023-01-13T21:47:49.486Z,30.60
2023-01-13T21:50:21.761Z,40.90
2023-01-13T21:52:49.067Z,31.70
2023-01-13T21:55:27.845Z,25.40
2023-01-13T21:57:58.763Z,21.60
2023-01-13T22:02:53.422Z,40.80
2023-01-13T22:05:21.346Z,25.40
2023-01-13T22:07:48.233Z,20.90
2023-01-13T22:10:19.945Z,18.50
2023-01-13T22:12:48.415Z,14.60
2023-01-13T22:15:16.233Z,15.20
2023-01-13T22:17:43.238Z,27.50
2023-01-13T22:20:11.557Z,18.70
2023-01-13T22:22:39.077Z,17.20
2023-01-13T22:25:08.164Z,22.50
2023-01-13T22:27:40.745Z,19.80
2023-01-13T22:30:18.899Z,15.00
2023-01-13T22:32:46.119Z,15.50
2023-01-13T22:35:14.185Z,43.00
2023-01-13T22:37:41.686Z,29.60
2023-01-13T22:40:10.229Z,18.20
2023-01-13T22:42:40.762Z,14.80
2023-01-13T22:45:10.407Z,13.50
2023-01-13T22:47:37.402Z,13.00
2023-01-13T22:50:05.314Z,13.60
2023-01-13T22:52:33.761Z,13.70
2023-01-13T22:55:01.009Z,12.90
2023-01-13T22:57:36.050Z,12.80
2023-01-13T23:00:10.421Z,12.70
2023-01-13T23:02:38.549Z,14.50
2023-01-13T23:05:06.107Z,25.50
2023-01-13T23:07:33.046Z,23.50
2023-01-13T23:10:00.109Z,16.80
2023-01-13T23:12:26.961Z,14.20
2023-01-13T23:14:55.017Z,13.50
2023-01-13T23:17:21.864Z,12.40
2023-01-13T23:19:48.704Z,12.80
2023-01-13T23:22:15.951Z,12.40
2023-01-13T23:24:42.800Z,12.20
2023-01-13T23:27:09.519Z,12.50
2023-01-13T23:29:36.843Z,12.60
2023-01-13T23:32:04.459Z,12.50
2023-01-13T23:34:31.293Z,11.90
2023-01-13T23:36:58.546Z,14.10
2023-01-13T23:39:25.390Z,19.70
2023-01-13T23:41:52.237Z,15.10
2023-01-13T23:44:19.488Z,14.90
2023-01-13T23:46:46.302Z,14.70
2023-01-13T23:49:13.014Z,14.80
2023-01-13T23:51:40.019Z,14.50
2023-01-13T23:54:06.870Z,13.70
2023-01-13T23:56:35.138Z,12.40
2023-01-13T23:59:01.888Z,15.50
